ANA543 RJOO-RJFK
Flight info
| Callsign | ANA543 |
|---|---|
| Flight time | 0h 56m |
| Altitude | 32000 |
| Route | TIGER MAIKO AWAJI Y232 KRE Y756 VIRUD Y757 SPICA |
| Aircraft | A320/M-SDE3FGHIRWY/LB1 |
Departure
| Time | 2026-04-27 13:18 |
|---|---|
| Airport | Osaka Itami International Airport (RJOO) |
Arrival
| Time | 2026-04-27 14:14 |
|---|---|
| Airport | Kagoshima Airport (RJFK) |
| Time | Latitude | Longitude | Altitude | Speed | Heading |
|---|---|---|---|---|---|
| 2026-04-27 12:53 | 34.78751 | 135.44288 | 50 ft | 0 kts | 59° |
| 2026-04-27 13:03 | 34.78739 | 135.44263 | 47 ft | 4 kts | 59° |
| 2026-04-27 13:03 | 34.78725 | 135.44235 | 50 ft | 4 kts | 59° |
| 2026-04-27 13:04 | 34.78712 | 135.44206 | 48 ft | 4 kts | 66° |
| 2026-04-27 13:04 | 34.78705 | 135.44177 | 50 ft | 4 kts | 105° |
| 2026-04-27 13:04 | 34.78709 | 135.44167 | 47 ft | 0 kts | 135° |
| 2026-04-27 13:08 | 34.78707 | 135.44168 | 47 ft | 2 kts | 136° |
| 2026-04-27 13:08 | 34.78673 | 135.44203 | 50 ft | 6 kts | 147° |
| 2026-04-27 13:08 | 34.78655 | 135.44210 | 50 ft | 0 kts | 171° |
| 2026-04-27 13:09 | 34.78628 | 135.44205 | 50 ft | 9 kts | 188° |
| 2026-04-27 13:09 | 34.78573 | 135.44211 | 50 ft | 7 kts | 155° |
| 2026-04-27 13:09 | 34.78536 | 135.44251 | 49 ft | 10 kts | 133° |
| 2026-04-27 13:09 | 34.78481 | 135.44316 | 50 ft | 11 kts | 143° |
| 2026-04-27 13:10 | 34.78412 | 135.44334 | 49 ft | 10 kts | 180° |
| 2026-04-27 13:10 | 34.78312 | 135.44334 | 51 ft | 17 kts | 179° |
| 2026-04-27 13:10 | 34.78188 | 135.44339 | 50 ft | 18 kts | 162° |
| 2026-04-27 13:10 | 34.78088 | 135.44441 | 48 ft | 20 kts | 135° |
| 2026-04-27 13:11 | 34.77988 | 135.44562 | 47 ft | 21 kts | 135° |
| 2026-04-27 13:11 | 34.77881 | 135.44691 | 50 ft | 22 kts | 135° |
| 2026-04-27 13:11 | 34.77772 | 135.44823 | 47 ft | 19 kts | 136° |
| 2026-04-27 13:11 | 34.77663 | 135.44926 | 50 ft | 20 kts | 153° |
| 2026-04-27 13:12 | 34.77541 | 135.44997 | 51 ft | 19 kts | 155° |
| 2026-04-27 13:12 | 34.77488 | 135.45018 | 51 ft | 0 kts | 175° |
| 2026-04-27 13:14 | 34.77487 | 135.45018 | 51 ft | 2 kts | 175° |
| 2026-04-27 13:14 | 34.77464 | 135.45014 | 51 ft | 3 kts | 198° |
| 2026-04-27 13:15 | 34.77437 | 135.44975 | 52 ft | 9 kts | 250° |
| 2026-04-27 13:15 | 34.77446 | 135.44912 | 49 ft | 7 kts | 306° |
| 2026-04-27 13:15 | 34.77457 | 135.44898 | 52 ft | 0 kts | 315° |
| 2026-04-27 13:17 | 34.77506 | 135.44840 | 50 ft | 39 kts | 315° |
| 2026-04-27 13:17 | 34.77877 | 135.44391 | 47 ft | 108 kts | 315° |
| 2026-04-27 13:17 | 34.78547 | 135.43580 | 48 ft | 161 kts | 315° |
| 2026-04-27 13:18 | 34.79375 | 135.42583 | 522 ft | 165 kts | 313° |
| 2026-04-27 13:18 | 34.79825 | 135.41352 | 1148 ft | 165 kts | 271° |
| 2026-04-27 13:18 | 34.79603 | 135.39979 | 1756 ft | 167 kts | 249° |
| 2026-04-27 13:18 | 34.79199 | 135.38635 | 2257 ft | 178 kts | 260° |
| 2026-04-27 13:19 | 34.78907 | 135.37082 | 2553 ft | 200 kts | 245° |
| 2026-04-27 13:19 | 34.78001 | 135.35733 | 2859 ft | 222 kts | 217° |
| 2026-04-27 13:19 | 34.76493 | 135.35007 | 3172 ft | 249 kts | 187° |
| 2026-04-27 13:19 | 34.74713 | 135.35226 | 3762 ft | 265 kts | 169° |
| 2026-04-27 13:20 | 34.72890 | 135.35731 | 4553 ft | 272 kts | 169° |
| 2026-04-27 13:20 | 34.71022 | 135.36231 | 5339 ft | 278 kts | 170° |
| 2026-04-27 13:20 | 34.69109 | 135.36659 | 6119 ft | 282 kts | 179° |
| 2026-04-27 13:20 | 34.67162 | 135.36399 | 6854 ft | 283 kts | 202° |
| 2026-04-27 13:21 | 34.65472 | 135.35237 | 7640 ft | 279 kts | 226° |
| 2026-04-27 13:21 | 34.64249 | 135.33428 | 8461 ft | 278 kts | 237° |
| 2026-04-27 13:21 | 34.63131 | 135.31543 | 9302 ft | 280 kts | 237° |
| 2026-04-27 13:21 | 34.61992 | 135.29613 | 10105 ft | 282 kts | 237° |
| 2026-04-27 13:22 | 34.60819 | 135.27621 | 10491 ft | 301 kts | 237° |
| 2026-04-27 13:22 | 34.59555 | 135.25484 | 10787 ft | 320 kts | 236° |
| 2026-04-27 13:22 | 34.58239 | 135.23275 | 11422 ft | 325 kts | 236° |
| 2026-04-27 13:22 | 34.56908 | 135.21046 | 12210 ft | 326 kts | 236° |
| 2026-04-27 13:23 | 34.55577 | 135.18820 | 13025 ft | 326 kts | 237° |
| 2026-04-27 13:23 | 34.54247 | 135.16593 | 13836 ft | 326 kts | 237° |
| 2026-04-27 13:23 | 34.52920 | 135.14368 | 14534 ft | 326 kts | 237° |
| 2026-04-27 13:23 | 34.51601 | 135.12162 | 15179 ft | 328 kts | 237° |
| 2026-04-27 13:24 | 34.50259 | 135.09917 | 15818 ft | 330 kts | 237° |
| 2026-04-27 13:24 | 34.48904 | 135.07654 | 16436 ft | 333 kts | 237° |
| 2026-04-27 13:24 | 34.47536 | 135.05371 | 17061 ft | 335 kts | 238° |
| 2026-04-27 13:24 | 34.46160 | 135.03076 | 17689 ft | 338 kts | 238° |
| 2026-04-27 13:25 | 34.44775 | 135.00764 | 18294 ft | 340 kts | 238° |
| 2026-04-27 13:25 | 34.43382 | 134.98441 | 18829 ft | 343 kts | 238° |
| 2026-04-27 13:25 | 34.41979 | 134.96105 | 19388 ft | 344 kts | 238° |
| 2026-04-27 13:25 | 34.40584 | 134.93784 | 19958 ft | 345 kts | 239° |
| 2026-04-27 13:26 | 34.39171 | 134.91436 | 20505 ft | 346 kts | 239° |
| 2026-04-27 13:26 | 34.37747 | 134.89073 | 21091 ft | 347 kts | 239° |
| 2026-04-27 13:26 | 34.36325 | 134.86714 | 21663 ft | 348 kts | 239° |
| 2026-04-27 13:26 | 34.34896 | 134.84340 | 22230 ft | 349 kts | 240° |
| 2026-04-27 13:27 | 34.33466 | 134.81964 | 22733 ft | 350 kts | 240° |
| 2026-04-27 13:27 | 34.32027 | 134.79581 | 23270 ft | 352 kts | 240° |
| 2026-04-27 13:27 | 34.30581 | 134.77188 | 23768 ft | 353 kts | 240° |
| 2026-04-27 13:27 | 34.29135 | 134.74789 | 24204 ft | 354 kts | 240° |
| 2026-04-27 13:28 | 34.27702 | 134.72412 | 24566 ft | 354 kts | 240° |
| 2026-04-27 13:28 | 34.26220 | 134.70017 | 24938 ft | 358 kts | 239° |
| 2026-04-27 13:28 | 34.24649 | 134.67667 | 25329 ft | 361 kts | 237° |
| 2026-04-27 13:28 | 34.23022 | 134.65347 | 25729 ft | 362 kts | 237° |
| 2026-04-27 13:29 | 34.21374 | 134.63040 | 26119 ft | 363 kts | 237° |
| 2026-04-27 13:29 | 34.19719 | 134.60727 | 26517 ft | 364 kts | 237° |
| 2026-04-27 13:29 | 34.18065 | 134.58402 | 26872 ft | 365 kts | 237° |
| 2026-04-27 13:29 | 34.16416 | 134.56068 | 27161 ft | 367 kts | 237° |
| 2026-04-27 13:30 | 34.14761 | 134.53707 | 27492 ft | 369 kts | 237° |
| 2026-04-27 13:30 | 34.13124 | 134.51367 | 27824 ft | 370 kts | 237° |
| 2026-04-27 13:30 | 34.11460 | 134.48985 | 28162 ft | 372 kts | 237° |
| 2026-04-27 13:30 | 34.09789 | 134.46594 | 28495 ft | 374 kts | 238° |
| 2026-04-27 13:31 | 34.08109 | 134.44191 | 28823 ft | 375 kts | 238° |
| 2026-04-27 13:31 | 34.06422 | 134.41780 | 29129 ft | 377 kts | 238° |
| 2026-04-27 13:31 | 34.04726 | 134.39361 | 29445 ft | 378 kts | 237° |
| 2026-04-27 13:31 | 34.03024 | 134.36937 | 29780 ft | 380 kts | 238° |
| 2026-04-27 13:32 | 34.01333 | 134.34533 | 30070 ft | 381 kts | 238° |
| 2026-04-27 13:32 | 33.99617 | 134.32091 | 30226 ft | 383 kts | 238° |
| 2026-04-27 13:32 | 33.97895 | 134.29641 | 30379 ft | 384 kts | 238° |
| 2026-04-27 13:32 | 33.96167 | 134.27178 | 30590 ft | 385 kts | 238° |
| 2026-04-27 13:33 | 33.94433 | 134.24709 | 30821 ft | 386 kts | 237° |
| 2026-04-27 13:33 | 33.92695 | 134.22242 | 31049 ft | 387 kts | 238° |
| 2026-04-27 13:33 | 33.90949 | 134.19768 | 31346 ft | 387 kts | 238° |
| 2026-04-27 13:33 | 33.89208 | 134.17302 | 31619 ft | 387 kts | 238° |
| 2026-04-27 13:34 | 33.87464 | 134.14832 | 31903 ft | 387 kts | 238° |
| 2026-04-27 13:34 | 33.85727 | 134.12379 | 31993 ft | 381 kts | 238° |
| 2026-04-27 13:34 | 33.82387 | 134.07684 | 32003 ft | 367 kts | 238° |
| 2026-04-27 13:35 | 33.79090 | 134.03023 | 32009 ft | 365 kts | 238° |
| 2026-04-27 13:35 | 33.75802 | 133.98372 | 32004 ft | 365 kts | 238° |
| 2026-04-27 13:36 | 33.72530 | 133.93753 | 32002 ft | 366 kts | 238° |
| 2026-04-27 13:36 | 33.69227 | 133.89106 | 31967 ft | 367 kts | 238° |
| 2026-04-27 13:37 | 33.65915 | 133.84457 | 31969 ft | 366 kts | 238° |
| 2026-04-27 13:37 | 33.62599 | 133.79808 | 31976 ft | 366 kts | 238° |
| 2026-04-27 13:38 | 33.59297 | 133.75174 | 31955 ft | 373 kts | 238° |
| 2026-04-27 13:38 | 33.55863 | 133.70345 | 31972 ft | 387 kts | 237° |
| 2026-04-27 13:39 | 33.52809 | 133.65032 | 31981 ft | 389 kts | 247° |
| 2026-04-27 13:39 | 33.50178 | 133.59304 | 31975 ft | 396 kts | 247° |
| 2026-04-27 13:40 | 33.47527 | 133.53547 | 31980 ft | 399 kts | 247° |
| 2026-04-27 13:40 | 33.44848 | 133.47725 | 31981 ft | 400 kts | 247° |
| 2026-04-27 13:41 | 33.42155 | 133.41900 | 32007 ft | 400 kts | 246° |
| 2026-04-27 13:41 | 33.40510 | 133.39176 | 32004 ft | 410 kts | 235° |
| 2026-04-27 13:41 | 33.38458 | 133.36774 | 31953 ft | 414 kts | 232° |
| 2026-04-27 13:42 | 33.34254 | 133.32039 | 31964 ft | 415 kts | 231° |
| 2026-04-27 13:42 | 33.30067 | 133.27338 | 31963 ft | 416 kts | 231° |
| 2026-04-27 13:43 | 33.25848 | 133.22591 | 31995 ft | 417 kts | 232° |
| 2026-04-27 13:43 | 33.21623 | 133.17842 | 31970 ft | 418 kts | 231° |
| 2026-04-27 13:44 | 33.17384 | 133.13087 | 31972 ft | 419 kts | 231° |
| 2026-04-27 13:44 | 33.13136 | 133.08330 | 31979 ft | 419 kts | 231° |
| 2026-04-27 13:45 | 33.08901 | 133.03587 | 31979 ft | 422 kts | 231° |
| 2026-04-27 13:45 | 33.04621 | 132.98803 | 32004 ft | 422 kts | 231° |
| 2026-04-27 13:46 | 33.00336 | 132.94028 | 31998 ft | 422 kts | 231° |
| 2026-04-27 13:46 | 32.96047 | 132.89249 | 31963 ft | 422 kts | 231° |
| 2026-04-27 13:47 | 32.91782 | 132.84500 | 31970 ft | 423 kts | 231° |
| 2026-04-27 13:47 | 32.87475 | 132.79730 | 31975 ft | 423 kts | 231° |
| 2026-04-27 13:48 | 32.83162 | 132.74947 | 31963 ft | 424 kts | 231° |
| 2026-04-27 13:48 | 32.78854 | 132.70161 | 31968 ft | 424 kts | 231° |
| 2026-04-27 13:49 | 32.74564 | 132.65408 | 31979 ft | 425 kts | 231° |
| 2026-04-27 13:49 | 32.70241 | 132.60625 | 31996 ft | 425 kts | 231° |
| 2026-04-27 13:50 | 32.65907 | 132.55849 | 32006 ft | 425 kts | 231° |
| 2026-04-27 13:50 | 32.61575 | 132.51077 | 32000 ft | 425 kts | 231° |
| 2026-04-27 13:51 | 32.57269 | 132.46341 | 31966 ft | 425 kts | 231° |
| 2026-04-27 13:51 | 32.52929 | 132.41572 | 31978 ft | 426 kts | 231° |
| 2026-04-27 13:52 | 32.48577 | 132.36790 | 31988 ft | 427 kts | 231° |
| 2026-04-27 13:52 | 32.44217 | 132.32013 | 31971 ft | 427 kts | 230° |
| 2026-04-27 13:53 | 32.37694 | 132.24873 | 31948 ft | 428 kts | 231° |
| 2026-04-27 13:53 | 32.35752 | 132.22245 | 31098 ft | 420 kts | 242° |
| 2026-04-27 13:54 | 32.34245 | 132.19339 | 30538 ft | 408 kts | 245° |
| 2026-04-27 13:54 | 32.32808 | 132.16535 | 30390 ft | 391 kts | 245° |
| 2026-04-27 13:54 | 32.31402 | 132.13825 | 29972 ft | 382 kts | 245° |
| 2026-04-27 13:54 | 32.30026 | 132.11183 | 29105 ft | 374 kts | 244° |
| 2026-04-27 13:55 | 32.28674 | 132.08593 | 28263 ft | 364 kts | 244° |
| 2026-04-27 13:55 | 32.27372 | 132.06113 | 27834 ft | 346 kts | 244° |
| 2026-04-27 13:55 | 32.26132 | 132.03752 | 27407 ft | 331 kts | 244° |
| 2026-04-27 13:55 | 32.24949 | 132.01493 | 27007 ft | 316 kts | 244° |
| 2026-04-27 13:56 | 32.23827 | 131.99341 | 26622 ft | 310 kts | 244° |
| 2026-04-27 13:56 | 32.22709 | 131.97187 | 26237 ft | 307 kts | 244° |
| 2026-04-27 13:56 | 32.21596 | 131.95044 | 25842 ft | 305 kts | 243° |
| 2026-04-27 13:56 | 32.20489 | 131.92919 | 25424 ft | 303 kts | 243° |
| 2026-04-27 13:57 | 32.19389 | 131.90815 | 25058 ft | 301 kts | 243° |
| 2026-04-27 13:57 | 32.18292 | 131.88720 | 24662 ft | 299 kts | 243° |
| 2026-04-27 13:57 | 32.17200 | 131.86635 | 24260 ft | 298 kts | 242° |
| 2026-04-27 13:57 | 32.16114 | 131.84562 | 23844 ft | 297 kts | 242° |
| 2026-04-27 13:58 | 32.15027 | 131.82488 | 23388 ft | 296 kts | 242° |
| 2026-04-27 13:58 | 32.13960 | 131.80455 | 22934 ft | 295 kts | 242° |
| 2026-04-27 13:58 | 32.12884 | 131.78404 | 22503 ft | 292 kts | 242° |
| 2026-04-27 13:58 | 32.11818 | 131.76372 | 22085 ft | 291 kts | 242° |
| 2026-04-27 13:59 | 32.10756 | 131.74348 | 21663 ft | 290 kts | 242° |
| 2026-04-27 13:59 | 32.09695 | 131.72333 | 21249 ft | 288 kts | 242° |
| 2026-04-27 13:59 | 32.08637 | 131.70331 | 20823 ft | 287 kts | 242° |
| 2026-04-27 13:59 | 32.07585 | 131.68337 | 20427 ft | 286 kts | 242° |
| 2026-04-27 14:00 | 32.06537 | 131.66346 | 20017 ft | 285 kts | 242° |
| 2026-04-27 14:00 | 32.05494 | 131.64357 | 19616 ft | 285 kts | 242° |
| 2026-04-27 14:00 | 32.04451 | 131.62375 | 19214 ft | 285 kts | 242° |
| 2026-04-27 14:00 | 32.03415 | 131.60415 | 18820 ft | 285 kts | 242° |
| 2026-04-27 14:01 | 32.02366 | 131.58434 | 18412 ft | 286 kts | 242° |
| 2026-04-27 14:01 | 32.01311 | 131.56441 | 17975 ft | 286 kts | 242° |
| 2026-04-27 14:01 | 32.00259 | 131.54454 | 17572 ft | 286 kts | 242° |
| 2026-04-27 14:01 | 31.99211 | 131.52468 | 17172 ft | 285 kts | 242° |
| 2026-04-27 14:02 | 31.98164 | 131.50489 | 16784 ft | 284 kts | 242° |
| 2026-04-27 14:02 | 31.97120 | 131.48517 | 16376 ft | 284 kts | 241° |
| 2026-04-27 14:02 | 31.96078 | 131.46548 | 16008 ft | 283 kts | 241° |
| 2026-04-27 14:02 | 31.95051 | 131.44605 | 15620 ft | 283 kts | 241° |
| 2026-04-27 14:03 | 31.94007 | 131.42636 | 15254 ft | 284 kts | 241° |
| 2026-04-27 14:03 | 31.92957 | 131.40669 | 14870 ft | 284 kts | 241° |
| 2026-04-27 14:03 | 31.91902 | 131.38700 | 14503 ft | 285 kts | 241° |
| 2026-04-27 14:03 | 31.90846 | 131.36726 | 14124 ft | 286 kts | 241° |
| 2026-04-27 14:04 | 31.89786 | 131.34743 | 13747 ft | 287 kts | 241° |
| 2026-04-27 14:04 | 31.88723 | 131.32752 | 13288 ft | 288 kts | 240° |
| 2026-04-27 14:04 | 31.87671 | 131.30785 | 12893 ft | 287 kts | 240° |
| 2026-04-27 14:04 | 31.86606 | 131.28801 | 12509 ft | 287 kts | 240° |
| 2026-04-27 14:05 | 31.85541 | 131.26823 | 12127 ft | 286 kts | 240° |
| 2026-04-27 14:05 | 31.84480 | 131.24851 | 11756 ft | 285 kts | 240° |
| 2026-04-27 14:05 | 31.83421 | 131.22880 | 11370 ft | 285 kts | 240° |
| 2026-04-27 14:05 | 31.82364 | 131.20912 | 10980 ft | 284 kts | 240° |
| 2026-04-27 14:06 | 31.81310 | 131.18949 | 10592 ft | 284 kts | 240° |
| 2026-04-27 14:06 | 31.80255 | 131.16980 | 10193 ft | 285 kts | 240° |
| 2026-04-27 14:06 | 31.79207 | 131.15027 | 9904 ft | 281 kts | 240° |
| 2026-04-27 14:06 | 31.78185 | 131.13124 | 9725 ft | 278 kts | 240° |
| 2026-04-27 14:07 | 31.77151 | 131.11197 | 9255 ft | 279 kts | 240° |
| 2026-04-27 14:07 | 31.76112 | 131.09264 | 8788 ft | 280 kts | 239° |
| 2026-04-27 14:07 | 31.75073 | 131.07334 | 8361 ft | 280 kts | 239° |
| 2026-04-27 14:07 | 31.74038 | 131.05408 | 7945 ft | 279 kts | 239° |
| 2026-04-27 14:08 | 31.73001 | 131.03477 | 7563 ft | 277 kts | 239° |
| 2026-04-27 14:08 | 31.71973 | 131.01565 | 7155 ft | 277 kts | 239° |
| 2026-04-27 14:08 | 31.70950 | 130.99663 | 6743 ft | 276 kts | 239° |
| 2026-04-27 14:08 | 31.69922 | 130.97756 | 6323 ft | 276 kts | 239° |
| 2026-04-27 14:09 | 31.68923 | 130.95908 | 6124 ft | 265 kts | 238° |
| 2026-04-27 14:09 | 31.67963 | 130.94128 | 5730 ft | 253 kts | 238° |
| 2026-04-27 14:09 | 31.67107 | 130.92361 | 5349 ft | 243 kts | 248° |
| 2026-04-27 14:09 | 31.66622 | 130.90448 | 4977 ft | 248 kts | 257° |
| 2026-04-27 14:10 | 31.66254 | 130.88471 | 4306 ft | 248 kts | 258° |
| 2026-04-27 14:10 | 31.66129 | 130.86491 | 3916 ft | 237 kts | 275° |
| 2026-04-27 14:10 | 31.66456 | 130.84670 | 3749 ft | 220 kts | 289° |
| 2026-04-27 14:10 | 31.66961 | 130.83035 | 3639 ft | 208 kts | 289° |
| 2026-04-27 14:11 | 31.67466 | 130.81508 | 3565 ft | 195 kts | 297° |
| 2026-04-27 14:11 | 31.68254 | 130.80265 | 3323 ft | 191 kts | 316° |
| 2026-04-27 14:11 | 31.69314 | 130.79382 | 3086 ft | 184 kts | 330° |
| 2026-04-27 14:11 | 31.70444 | 130.78623 | 2846 ft | 195 kts | 330° |
| 2026-04-27 14:12 | 31.71629 | 130.77825 | 2597 ft | 197 kts | 330° |
| 2026-04-27 14:12 | 31.72813 | 130.77026 | 2339 ft | 196 kts | 330° |
| 2026-04-27 14:12 | 31.73991 | 130.76232 | 2080 ft | 195 kts | 330° |
| 2026-04-27 14:12 | 31.75160 | 130.75443 | 1822 ft | 194 kts | 330° |
| 2026-04-27 14:13 | 31.76326 | 130.74655 | 1564 ft | 193 kts | 330° |
| 2026-04-27 14:13 | 31.77466 | 130.73885 | 1316 ft | 187 kts | 330° |
| 2026-04-27 14:13 | 31.78540 | 130.73159 | 1066 ft | 170 kts | 330° |
| 2026-04-27 14:13 | 31.79526 | 130.72491 | 890 ft | 155 kts | 330° |
| 2026-04-27 14:14 | 31.80280 | 130.71981 | 898 ft | 84 kts | 330° |
| 2026-04-27 14:14 | 31.80646 | 130.71730 | 902 ft | 44 kts | 329° |
| 2026-04-27 14:14 | 31.80817 | 130.71559 | 902 ft | 19 kts | 309° |
| 2026-04-27 14:14 | 31.80845 | 130.71437 | 901 ft | 17 kts | 238° |
| 2026-04-27 14:15 | 31.80740 | 130.71445 | 898 ft | 18 kts | 149° |
| 2026-04-27 14:15 | 31.80629 | 130.71519 | 896 ft | 19 kts | 150° |
| 2026-04-27 14:15 | 31.80537 | 130.71581 | 896 ft | 13 kts | 149° |
| 2026-04-27 14:15 | 31.80461 | 130.71633 | 895 ft | 13 kts | 150° |
| 2026-04-27 14:16 | 31.80387 | 130.71682 | 894 ft | 12 kts | 150° |
| 2026-04-27 14:16 | 31.80319 | 130.71728 | 894 ft | 10 kts | 150° |
| 2026-04-27 14:16 | 31.80260 | 130.71768 | 894 ft | 9 kts | 150° |
| 2026-04-27 14:16 | 31.80224 | 130.71770 | 895 ft | 4 kts | 225° |
| 2026-04-27 14:17 | 31.80211 | 130.71746 | 897 ft | 11 kts | 238° |
| 2026-04-27 14:17 | 31.80178 | 130.71679 | 897 ft | 7 kts | 239° |
| 2026-04-27 14:17 | 31.80168 | 130.71660 | 896 ft | 1 kts | 238° |
| 2026-04-27 14:17 | 31.80166 | 130.71654 | 896 ft | 0 kts | 239° |